Sandford, United Kingdom
Current Conditions -  °F | °C
As of 3:50 PM on Thursday 27 Nov 2014 (Local Time) from EGGD Reporting Station
Broken Clouds Broken Clouds  
Wind Chill: 38°   Ceiling: 4200
Heat Index: 45°   Visibility: 4mi
Dew Point: 45°   Wind: 14mph
Humidity: 100%   Direction: 90°E
Pressure: 29.5"   Gusts: NA
Location:  51.33°N, 2.83°W
Report Text: EGGD 271550Z 09012KT 7000 SCT031 BKN042 07/07 Q0999
Loading
Personal Weather Stations






























Interactive Weather Map New forecast layout! Learn more

10-Day Weather Forecast

Advertisements
Track Severe Weather on mobile